createdAt,value
2023-04-04T00:01:45.662Z,3.47
2023-04-04T00:04:12.913Z,3.00
2023-04-04T00:06:44.665Z,7.47
2023-04-04T00:09:14.659Z,2.60
2023-04-04T00:11:42.483Z,3.67
2023-04-04T00:14:09.363Z,2.53
2023-04-04T00:16:37.082Z,10.13
2023-04-04T00:19:03.982Z,5.07
2023-04-04T00:21:31.136Z,4.00
2023-04-04T00:23:58.641Z,6.83
2023-04-04T00:26:26.749Z,3.47
2023-04-04T00:28:53.599Z,4.73
2023-04-04T00:31:21.217Z,4.67
2023-04-04T00:33:48.402Z,2.77
2023-04-04T00:36:15.314Z,3.90
2023-04-04T00:38:42.217Z,2.07
2023-04-04T00:41:08.993Z,4.80
2023-04-04T00:43:36.270Z,5.63
2023-04-04T00:46:03.964Z,4.23
2023-04-04T00:48:30.973Z,4.43
2023-04-04T00:50:57.950Z,6.13
2023-04-04T00:53:24.773Z,4.03
2023-04-04T00:55:51.561Z,4.27
2023-04-04T00:58:19.295Z,4.60
2023-04-04T01:00:46.665Z,3.80
2023-04-04T01:03:14.345Z,4.50
2023-04-04T01:05:41.882Z,6.13
2023-04-04T01:08:09.111Z,2.40
2023-04-04T01:10:36.232Z,5.00
2023-04-04T01:13:03.574Z,4.73
2023-04-04T01:15:30.992Z,3.63
2023-04-04T01:18:00.513Z,4.43
2023-04-04T01:20:31.024Z,4.33
2023-04-04T01:22:59.255Z,4.00
2023-04-04T01:25:32.395Z,3.00
2023-04-04T01:28:06.089Z,3.37
2023-04-04T01:30:35.999Z,3.40
2023-04-04T01:33:16.323Z,5.83
2023-04-04T01:36:07.778Z,3.77
2023-04-04T01:38:43.225Z,7.77
2023-04-04T01:41:12.180Z,3.77
2023-04-04T01:43:46.811Z,2.53
2023-04-04T01:46:14.786Z,5.07
2023-04-04T01:48:42.716Z,8.97
2023-04-04T01:51:10.690Z,4.97
2023-04-04T01:53:37.563Z,2.77
2023-04-04T01:56:04.969Z,3.43
2023-04-04T01:58:35.212Z,9.20
2023-04-04T02:01:01.999Z,3.47
2023-04-04T02:03:28.904Z,1.83
2023-04-04T02:05:55.756Z,3.20
2023-04-04T02:08:22.738Z,3.33
2023-04-04T02:10:57.766Z,3.40
2023-04-04T02:13:25.176Z,5.20
2023-04-04T02:15:52.784Z,5.60
2023-04-04T02:18:20.215Z,6.57
2023-04-04T02:20:47.016Z,4.10
2023-04-04T02:23:13.764Z,2.50
2023-04-04T02:25:40.590Z,3.70
2023-04-04T02:28:09.491Z,2.50
2023-04-04T02:30:36.279Z,3.60
2023-04-04T02:33:04.155Z,2.03
2023-04-04T02:35:31.351Z,5.43
2023-04-04T02:37:58.937Z,5.93
2023-04-04T02:40:39.840Z,2.77
2023-04-04T02:43:07.476Z,2.97
2023-04-04T02:45:35.446Z,5.63
2023-04-04T02:48:10.981Z,5.00
2023-04-04T02:50:43.432Z,6.57
2023-04-04T02:53:13.389Z,1.93
2023-04-04T02:55:40.176Z,4.73
2023-04-04T02:58:07.089Z,6.03
2023-04-04T03:00:34.005Z,2.70
2023-04-04T03:03:01.115Z,8.07
2023-04-04T03:05:35.798Z,4.00
2023-04-04T03:08:03.005Z,6.27
2023-04-04T03:10:32.586Z,7.07
2023-04-04T03:12:59.780Z,5.63
2023-04-04T03:15:29.044Z,5.07
2023-04-04T03:17:56.840Z,6.57
2023-04-04T03:20:26.687Z,5.13
2023-04-04T03:22:53.555Z,3.63
2023-04-04T03:25:20.782Z,3.50
2023-04-04T03:27:47.864Z,5.07
2023-04-04T03:30:21.234Z,1.98
2023-04-04T03:32:48.762Z,2.97
2023-04-04T03:35:16.330Z,2.83
2023-04-04T03:37:43.258Z,2.93
2023-04-04T03:40:10.261Z,4.73
2023-04-04T03:42:37.119Z,4.57
2023-04-04T03:45:08.604Z,4.05
2023-04-04T03:47:36.781Z,5.15
2023-04-04T03:50:03.840Z,5.87
2023-04-04T03:52:32.239Z,2.35
2023-04-04T03:54:59.080Z,4.68
2023-04-04T03:57:27.311Z,2.27
2023-04-04T03:59:54.574Z,5.57
2023-04-04T04:02:22.915Z,3.70
2023-04-04T04:04:49.725Z,3.15
2023-04-04T04:07:16.829Z,1.90
2023-04-04T04:09:43.601Z,8.32
2023-04-04T04:12:10.378Z,2.88
2023-04-04T04:14:37.638Z,6.20
2023-04-04T04:17:04.657Z,4.37
2023-04-04T04:19:31.413Z,5.53
2023-04-04T04:21:58.444Z,4.38
2023-04-04T04:24:25.436Z,2.38
2023-04-04T04:26:52.405Z,2.78
2023-04-04T04:29:19.968Z,5.20
2023-04-04T04:31:46.830Z,3.95
2023-04-04T04:34:14.097Z,6.15
2023-04-04T04:36:42.575Z,6.22
2023-04-04T04:39:27.280Z,7.85
2023-04-04T04:42:06.975Z,4.73
2023-04-04T04:44:36.823Z,4.93
2023-04-04T04:47:04.312Z,4.55
2023-04-04T04:49:31.172Z,4.38
2023-04-04T04:52:00.307Z,3.97
2023-04-04T04:54:27.294Z,5.15
2023-04-04T04:56:55.372Z,3.35
2023-04-04T04:59:22.618Z,4.45
2023-04-04T05:01:49.818Z,5.22
2023-04-04T05:04:17.863Z,2.58
2023-04-04T05:06:57.362Z,3.10
2023-04-04T05:09:24.535Z,3.95
2023-04-04T05:11:51.341Z,4.88
2023-04-04T05:14:22.101Z,6.28
2023-04-04T05:16:56.427Z,3.08
2023-04-04T05:19:27.971Z,6.05
2023-04-04T05:21:57.081Z,5.20
2023-04-04T05:24:38.747Z,7.68
2023-04-04T05:27:06.905Z,3.22
2023-04-04T05:29:39.856Z,4.20
2023-04-04T05:32:07.078Z,5.47
2023-04-04T05:34:36.221Z,3.20
2023-04-04T05:37:07.108Z,5.00
2023-04-04T05:39:34.598Z,5.95
2023-04-04T05:42:05.883Z,3.25
2023-04-04T05:44:37.329Z,5.40
2023-04-04T05:47:05.514Z,8.13
2023-04-04T05:49:32.502Z,10.88
2023-04-04T05:52:01.602Z,2.30
2023-04-04T05:54:31.329Z,4.97
2023-04-04T05:57:01.567Z,9.13
2023-04-04T05:59:44.393Z,3.73
2023-04-04T06:02:14.403Z,5.57
2023-04-04T06:04:46.205Z,4.87
2023-04-04T06:07:19.306Z,5.90
2023-04-04T06:09:50.998Z,3.23
2023-04-04T06:12:19.749Z,6.40
2023-04-04T06:15:09.599Z,3.10
2023-04-04T06:17:37.330Z,3.00
2023-04-04T06:20:05.354Z,3.90
2023-04-04T06:22:35.191Z,5.03
2023-04-04T06:25:03.078Z,7.33
2023-04-04T06:27:30.973Z,3.47
2023-04-04T06:30:00.153Z,3.87
2023-04-04T06:32:28.211Z,4.63
2023-04-04T06:34:55.224Z,3.43
2023-04-04T06:37:43.194Z,5.23
2023-04-04T06:40:20.069Z,4.20
2023-04-04T06:42:52.075Z,4.60
2023-04-04T06:45:21.015Z,3.73
2023-04-04T06:47:51.324Z,4.77
2023-04-04T06:50:25.058Z,4.43
2023-04-04T06:52:52.835Z,3.23
2023-04-04T06:55:19.971Z,4.73
2023-04-04T06:57:47.211Z,3.50
2023-04-04T07:00:14.736Z,5.00
2023-04-04T07:02:41.745Z,4.97
2023-04-04T07:05:10.171Z,4.27
2023-04-04T07:07:37.873Z,5.90
2023-04-04T07:10:04.877Z,7.57
2023-04-04T07:12:32.104Z,5.20
2023-04-04T07:14:59.059Z,6.93
2023-04-04T07:17:26.161Z,6.00
2023-04-04T07:19:53.633Z,3.70
2023-04-04T07:22:20.456Z,4.93
2023-04-04T07:24:48.476Z,2.57
2023-04-04T07:27:15.982Z,3.57
2023-04-04T07:29:42.683Z,3.93
2023-04-04T07:32:09.898Z,5.20
2023-04-04T07:34:36.991Z,5.60
2023-04-04T07:37:03.807Z,4.20
2023-04-04T07:39:31.461Z,3.07
2023-04-04T07:41:58.272Z,9.07
2023-04-04T07:44:25.258Z,4.77
2023-04-04T07:47:02.368Z,2.73
2023-04-04T07:49:33.652Z,2.37
2023-04-04T07:52:03.592Z,6.47
2023-04-04T07:54:30.638Z,3.90
2023-04-04T07:56:58.061Z,3.87
2023-04-04T07:59:28.971Z,2.80
2023-04-04T08:02:00.955Z,3.13
2023-04-04T08:04:29.161Z,4.17
2023-04-04T08:06:57.955Z,5.17
2023-04-04T08:09:28.689Z,4.17
2023-04-04T08:11:59.556Z,5.00
2023-04-04T08:14:27.261Z,11.27
2023-04-04T08:16:54.327Z,4.83
2023-04-04T08:19:21.222Z,3.63
2023-04-04T08:21:51.281Z,3.33
2023-04-04T08:24:29.560Z,5.60
2023-04-04T08:27:05.345Z,6.53
2023-04-04T08:29:34.434Z,4.10
2023-04-04T08:32:03.186Z,1.30
2023-04-04T08:34:36.198Z,3.13
2023-04-04T08:43:01.277Z,3.07
2023-04-04T08:45:36.328Z,2.87
2023-04-04T08:48:12.088Z,2.43
2023-04-04T08:51:44.696Z,2.27
2023-04-04T08:54:16.765Z,4.07
2023-04-04T08:56:46.326Z,3.90
2023-04-04T08:59:16.036Z,5.63
2023-04-04T09:01:48.961Z,5.03
2023-04-04T09:04:19.092Z,3.53
2023-04-04T09:06:49.366Z,5.70
2023-04-04T09:12:15.195Z,5.47
2023-04-04T09:15:29.808Z,3.97
2023-04-04T09:17:56.848Z,2.27
2023-04-04T09:20:43.413Z,5.80
2023-04-04T09:23:15.446Z,4.53
2023-04-04T09:26:02.494Z,5.10
2023-04-04T09:28:31.546Z,2.07
2023-04-04T09:31:02.309Z,4.87
2023-04-04T09:33:29.354Z,5.10
2023-04-04T09:35:59.201Z,3.17
2023-04-04T09:38:30.281Z,5.57
2023-04-04T09:41:00.149Z,3.33
2023-04-04T09:43:34.386Z,6.33
2023-04-04T09:46:09.808Z,3.33
2023-04-04T09:48:39.187Z,3.47
2023-04-04T09:51:13.242Z,4.67
2023-04-04T09:53:45.525Z,4.93
2023-04-04T09:56:14.254Z,4.97
2023-04-04T09:58:52.434Z,5.93
2023-04-04T10:01:27.026Z,4.67
2023-04-04T10:03:54.750Z,4.87
2023-04-04T10:06:22.918Z,5.10
2023-04-04T10:09:07.725Z,5.07
2023-04-04T10:15:14.359Z,4.13
2023-04-04T10:17:44.774Z,4.20
2023-04-04T10:23:09.057Z,4.47
2023-04-04T10:25:44.022Z,7.03
2023-04-04T10:28:16.638Z,3.63
2023-04-04T10:31:06.698Z,4.23
2023-04-04T10:34:01.977Z,3.23
2023-04-04T10:36:54.292Z,4.90
2023-04-04T10:39:25.097Z,5.10
2023-04-04T10:41:53.056Z,4.77
2023-04-04T10:44:55.393Z,4.17
2023-04-04T10:47:26.988Z,6.50
2023-04-04T10:49:55.048Z,2.40
2023-04-04T10:52:23.834Z,3.00
2023-04-04T10:54:57.330Z,5.07
2023-04-04T10:57:24.639Z,6.40
2023-04-04T11:00:14.842Z,4.80
2023-04-04T11:02:57.837Z,2.90
2023-04-04T11:05:35.036Z,4.23
2023-04-04T11:08:09.312Z,4.77
2023-04-04T11:10:58.003Z,4.67
2023-04-04T11:13:39.936Z,7.23
2023-04-04T11:16:10.128Z,4.33
2023-04-04T11:18:43.955Z,3.17
2023-04-04T11:21:18.637Z,4.73
2023-04-04T11:23:51.480Z,3.67
2023-04-04T11:26:30.809Z,3.97
2023-04-04T11:28:58.738Z,5.47
2023-04-04T11:31:40.258Z,7.03
2023-04-04T11:34:12.534Z,3.20
2023-04-04T11:36:43.246Z,2.23
2023-04-04T11:39:29.636Z,3.37
2023-04-04T11:42:14.142Z,5.67
2023-04-04T11:45:02.606Z,3.77
2023-04-04T11:47:30.816Z,5.53
2023-04-04T11:49:59.128Z,3.77
2023-04-04T11:52:26.188Z,3.77
2023-04-04T11:54:53.166Z,3.97
2023-04-04T11:57:21.240Z,4.63
2023-04-04T11:59:53.929Z,4.57
2023-04-04T12:02:27.883Z,7.23
2023-04-04T12:04:57.853Z,5.60
2023-04-04T12:07:25.050Z,3.73
2023-04-04T12:09:56.238Z,5.93
2023-04-04T12:12:24.539Z,6.27
2023-04-04T12:14:58.130Z,6.77
2023-04-04T12:17:34.577Z,4.10
2023-04-04T12:20:01.491Z,2.80
2023-04-04T12:22:28.777Z,3.77
2023-04-04T12:24:59.152Z,3.33
2023-04-04T12:28:01.907Z,2.60
2023-04-04T12:30:29.144Z,2.20
2023-04-04T12:32:56.195Z,2.90
2023-04-04T12:35:23.147Z,4.30
2023-04-04T12:37:59.668Z,5.13
2023-04-04T12:40:30.186Z,7.50
2023-04-04T12:42:57.353Z,3.17
2023-04-04T12:45:26.837Z,4.67
2023-04-04T12:47:58.884Z,3.27
2023-04-04T12:50:28.601Z,6.07
2023-04-04T12:53:13.513Z,3.07
2023-04-04T12:55:50.098Z,6.77
2023-04-04T12:58:18.264Z,3.77
2023-04-04T13:00:45.735Z,6.77
2023-04-04T13:03:14.720Z,3.47
2023-04-04T13:05:43.371Z,4.87
2023-04-04T13:08:11.805Z,4.53
2023-04-04T13:11:07.134Z,3.47
2023-04-04T13:13:40.437Z,5.43
2023-04-04T13:16:08.802Z,4.33
2023-04-04T13:18:43.535Z,3.20
2023-04-04T13:21:12.471Z,4.53
2023-04-04T13:23:41.003Z,4.43
2023-04-04T13:26:09.651Z,6.27
2023-04-04T13:28:36.854Z,4.23
2023-04-04T13:31:05.212Z,3.53
2023-04-04T13:33:33.090Z,4.23
2023-04-04T13:36:00.480Z,6.87
2023-04-04T13:38:28.759Z,5.37
2023-04-04T13:40:58.296Z,3.17
2023-04-04T13:43:25.403Z,4.30
2023-04-04T13:45:53.446Z,4.43
2023-04-04T13:48:20.334Z,4.30
2023-04-04T13:50:51.451Z,5.80
2023-04-04T13:53:19.037Z,5.30
2023-04-04T13:56:01.692Z,5.60
2023-04-04T13:58:33.550Z,7.57
2023-04-04T14:01:04.348Z,6.70
2023-04-04T14:03:31.860Z,6.97
2023-04-04T14:08:47.213Z,7.20
2023-04-04T14:11:14.873Z,5.17
2023-04-04T14:13:42.117Z,9.93
2023-04-04T14:16:09.496Z,6.13
2023-04-04T14:18:36.449Z,8.33
2023-04-04T14:21:04.478Z,7.67
2023-04-04T14:23:32.213Z,5.27
2023-04-04T14:25:59.220Z,6.33
2023-04-04T14:28:26.007Z,4.07
2023-04-04T14:30:53.257Z,3.73
2023-04-04T14:33:20.128Z,6.77
2023-04-04T14:35:47.112Z,4.20
2023-04-04T14:38:13.881Z,5.13
2023-04-04T14:40:41.931Z,4.03
2023-04-04T14:43:08.937Z,3.47
2023-04-04T14:45:35.889Z,3.13
2023-04-04T14:48:03.868Z,5.20
2023-04-04T14:50:30.938Z,3.87
2023-04-04T14:52:57.761Z,4.57
2023-04-04T14:55:24.898Z,4.90
2023-04-04T14:58:01.885Z,4.70
2023-04-04T15:00:29.815Z,6.83
2023-04-04T15:02:56.873Z,4.97
2023-04-04T15:05:26.428Z,5.30
2023-04-04T15:07:53.229Z,4.93
2023-04-04T15:10:20.340Z,2.67
2023-04-04T15:12:53.415Z,4.47
2023-04-04T15:15:22.293Z,3.77
2023-04-04T15:17:51.298Z,5.53
2023-04-04T15:20:18.491Z,6.83
2023-04-04T15:22:46.021Z,8.87
2023-04-04T15:25:13.094Z,3.13
2023-04-04T15:27:40.174Z,3.20
2023-04-04T15:30:07.807Z,4.37
2023-04-04T15:32:34.587Z,5.70
2023-04-04T15:35:03.722Z,3.40
2023-04-04T15:37:31.238Z,5.00
2023-04-04T15:39:58.171Z,3.07
2023-04-04T15:42:25.859Z,5.07
2023-04-04T15:44:53.184Z,6.30
2023-04-04T15:47:20.085Z,3.93
2023-04-04T15:49:46.863Z,8.43
2023-04-04T15:52:13.956Z,5.80
2023-04-04T15:54:40.831Z,4.33
2023-04-04T15:57:07.810Z,3.20
2023-04-04T15:59:34.614Z,2.63
2023-04-04T16:02:05.205Z,5.30
2023-04-04T16:04:32.811Z,5.97
2023-04-04T16:06:59.565Z,4.93
2023-04-04T16:09:26.418Z,4.47
2023-04-04T16:11:55.589Z,3.70
2023-04-04T16:14:23.417Z,3.87
2023-04-04T16:16:53.223Z,9.27
2023-04-04T16:19:25.909Z,6.43
2023-04-04T16:21:53.250Z,3.17
2023-04-04T16:24:20.038Z,5.40
2023-04-04T16:26:48.936Z,4.40
2023-04-04T16:29:19.214Z,6.57
2023-04-04T16:31:46.471Z,6.13
2023-04-04T16:34:16.740Z,3.10
2023-04-04T16:36:43.652Z,7.63
2023-04-04T16:39:10.698Z,5.57
2023-04-04T16:41:41.083Z,6.53
2023-04-04T16:44:07.853Z,5.00
2023-04-04T16:46:34.627Z,5.03
2023-04-04T16:49:02.072Z,3.40
2023-04-04T16:51:28.946Z,4.57
2023-04-04T16:53:56.306Z,7.43
2023-04-04T16:56:23.991Z,6.57
2023-04-04T16:58:51.085Z,4.33
2023-04-04T17:01:20.858Z,7.50
2023-04-04T17:03:47.638Z,5.70
2023-04-04T17:06:17.237Z,5.53
2023-04-04T17:08:46.865Z,8.07
2023-04-04T17:11:13.982Z,5.60
2023-04-04T17:13:40.730Z,3.80
2023-04-04T17:16:08.521Z,3.67
2023-04-04T17:18:35.641Z,5.60
2023-04-04T17:21:02.765Z,6.47
2023-04-04T17:23:29.534Z,5.67
2023-04-04T17:25:56.342Z,3.77
2023-04-04T17:28:23.428Z,6.67
2023-04-04T17:30:50.752Z,6.07
2023-04-04T17:33:17.707Z,4.03
2023-04-04T17:35:48.139Z,3.80
2023-04-04T17:38:15.223Z,7.23
2023-04-04T17:40:42.210Z,8.17
2023-04-04T17:43:09.758Z,3.30
2023-04-04T17:45:36.520Z,2.73
2023-04-04T17:48:04.021Z,3.03
2023-04-04T17:50:30.806Z,2.47
2023-04-04T17:52:57.637Z,4.50
2023-04-04T17:55:24.352Z,2.83
2023-04-04T17:57:51.906Z,3.43
2023-04-04T18:00:19.439Z,3.30
2023-04-04T18:02:46.463Z,5.87
2023-04-04T18:05:13.620Z,5.57
2023-04-04T18:07:40.892Z,2.40
2023-04-04T18:10:08.360Z,4.90
2023-04-04T18:12:35.901Z,4.70
2023-04-04T18:15:04.046Z,8.60
2023-04-04T18:17:32.365Z,3.50
2023-04-04T18:20:00.942Z,4.07
2023-04-04T18:22:28.221Z,6.70
2023-04-04T18:24:55.028Z,5.40
2023-04-04T18:27:21.876Z,6.03
2023-04-04T18:29:49.051Z,5.73
2023-04-04T18:32:17.144Z,3.50
2023-04-04T18:34:44.013Z,7.70
2023-04-04T18:37:12.442Z,7.97
2023-04-04T18:39:39.319Z,4.13
2023-04-04T18:42:06.653Z,3.93
2023-04-04T18:44:39.609Z,4.80
2023-04-04T18:47:11.048Z,6.83
2023-04-04T18:49:38.393Z,7.37
2023-04-04T18:52:05.403Z,5.20
2023-04-04T18:54:32.149Z,7.43
2023-04-04T18:56:58.964Z,4.43
2023-04-04T18:59:26.320Z,6.93
2023-04-04T19:01:54.245Z,6.67
2023-04-04T19:04:21.773Z,4.87
2023-04-04T19:06:54.006Z,4.10
2023-04-04T19:09:21.435Z,5.67
2023-04-04T19:11:49.450Z,6.07
2023-04-04T19:14:16.650Z,4.27
2023-04-04T19:16:43.522Z,6.33
2023-04-04T19:19:10.372Z,4.17
2023-04-04T19:21:37.383Z,8.67
2023-04-04T19:24:04.482Z,6.47
2023-04-04T19:26:31.560Z,6.33
2023-04-04T19:28:59.049Z,8.47
2023-04-04T19:31:30.299Z,5.67
2023-04-04T19:33:57.687Z,5.93
2023-04-04T19:36:25.194Z,5.93
2023-04-04T19:38:55.567Z,8.67
2023-04-04T19:41:34.442Z,4.53
2023-04-04T19:44:01.268Z,4.67
2023-04-04T19:46:31.815Z,6.23
2023-04-04T19:49:04.890Z,4.40
2023-04-04T19:51:40.227Z,6.60
2023-04-04T19:54:11.844Z,5.37
2023-04-04T19:56:38.861Z,5.60
2023-04-04T19:59:09.065Z,6.00
2023-04-04T20:01:42.543Z,7.63
2023-04-04T20:04:14.367Z,6.80
2023-04-04T20:06:43.024Z,5.87
2023-04-04T20:09:30.674Z,6.93
2023-04-04T20:11:58.526Z,10.80
2023-04-04T20:14:25.469Z,9.60
2023-04-04T20:16:52.488Z,5.67
2023-04-04T20:19:20.707Z,6.73
2023-04-04T20:21:48.629Z,7.43
2023-04-04T20:24:17.321Z,6.97
2023-04-04T20:26:59.964Z,10.70
2023-04-04T20:29:31.734Z,7.17
2023-04-04T20:32:08.611Z,7.37
2023-04-04T20:34:49.917Z,7.93
2023-04-04T20:37:24.961Z,7.17
2023-04-04T20:40:14.756Z,7.70
2023-04-04T20:42:41.993Z,8.83
2023-04-04T20:45:08.722Z,13.63
2023-04-04T20:47:42.983Z,7.57
2023-04-04T20:50:16.257Z,9.27
2023-04-04T20:53:03.858Z,11.67
2023-04-04T20:55:33.814Z,8.03
2023-04-04T20:58:09.022Z,9.40
2023-04-04T21:00:40.520Z,5.80
2023-04-04T21:03:26.226Z,9.10
2023-04-04T21:05:55.149Z,10.17
2023-04-04T21:08:34.215Z,6.93
2023-04-04T21:11:01.266Z,8.93
2023-04-04T21:13:35.046Z,10.10
2023-04-04T21:16:13.378Z,8.80
2023-04-04T21:18:42.953Z,8.70
2023-04-04T21:21:13.882Z,9.80
2023-04-04T21:23:44.988Z,8.60
2023-04-04T21:26:20.103Z,8.77
2023-04-04T21:28:46.938Z,8.67
2023-04-04T21:31:16.582Z,8.03
2023-04-04T21:33:48.217Z,12.27
2023-04-04T21:36:24.779Z,8.83
2023-04-04T21:38:52.402Z,10.30
2023-04-04T21:41:26.352Z,11.07
2023-04-04T21:43:54.579Z,10.33
2023-04-04T21:46:26.703Z,8.30
2023-04-04T21:48:54.553Z,10.70
2023-04-04T21:51:21.766Z,13.40
2023-04-04T21:53:49.823Z,14.13
2023-04-04T21:56:17.710Z,12.33
2023-04-04T21:58:44.818Z,12.90
2023-04-04T22:01:11.972Z,13.60
2023-04-04T22:03:45.966Z,12.77
2023-04-04T22:06:15.088Z,11.30
2023-04-04T22:08:42.202Z,10.57
2023-04-04T22:11:13.635Z,12.30
2023-04-04T22:13:47.047Z,9.60
2023-04-04T22:16:20.013Z,11.70
2023-04-04T22:18:53.404Z,10.13
2023-04-04T22:21:27.927Z,11.37
2023-04-04T22:24:01.049Z,9.03
2023-04-04T22:26:34.423Z,11.73
2023-04-04T22:29:03.586Z,9.60
2023-04-04T22:31:34.533Z,13.93
2023-04-04T22:34:03.295Z,8.93
2023-04-04T22:36:30.576Z,8.93
2023-04-04T22:38:58.403Z,10.27
2023-04-04T22:41:27.762Z,8.87
2023-04-04T22:43:56.392Z,11.13
2023-04-04T22:46:23.797Z,10.87
2023-04-04T22:48:51.055Z,10.13
2023-04-04T22:51:17.884Z,11.63
2023-04-04T22:53:45.921Z,12.93
2023-04-04T22:56:12.700Z,7.37
2023-04-04T22:58:39.629Z,11.10
2023-04-04T23:01:06.703Z,10.53
2023-04-04T23:03:33.714Z,11.47
2023-04-04T23:06:00.732Z,9.73
2023-04-04T23:08:27.557Z,11.00
2023-04-04T23:10:54.382Z,12.60
2023-04-04T23:13:21.887Z,9.50
2023-04-04T23:15:49.508Z,12.27
2023-04-04T23:18:16.283Z,11.47
2023-04-04T23:20:43.459Z,10.87
2023-04-04T23:23:10.678Z,11.43
2023-04-04T23:25:37.602Z,13.80
2023-04-04T23:28:04.349Z,11.00
2023-04-04T23:30:31.711Z,10.87
2023-04-04T23:32:58.480Z,12.70
2023-04-04T23:35:25.227Z,10.70
2023-04-04T23:37:52.099Z,11.60
2023-04-04T23:40:18.915Z,10.23
2023-04-04T23:42:46.001Z,9.07
2023-04-04T23:45:13.325Z,11.40
2023-04-04T23:47:40.777Z,9.43
2023-04-04T23:50:08.193Z,7.47
2023-04-04T23:52:35.403Z,13.57
2023-04-04T23:55:02.156Z,11.40
2023-04-04T23:57:29.046Z,10.67
2023-04-04T23:59:55.974Z,9.43
